createdAt,value
2019-03-28T00:00:16.521Z,99.90
2019-03-28T00:02:46.082Z,99.90
2019-03-28T00:05:15.731Z,99.90
2019-03-28T00:07:45.195Z,99.90
2019-03-28T00:10:14.952Z,99.90
2019-03-28T00:12:44.325Z,99.90
2019-03-28T00:15:13.782Z,99.90
2019-03-28T00:17:43.237Z,99.90
2019-03-28T00:20:16.250Z,99.90
2019-03-28T00:22:50.929Z,99.90
2019-03-28T00:25:20.405Z,99.90
2019-03-28T00:27:49.785Z,99.90
2019-03-28T00:30:20.240Z,99.90
2019-03-28T00:32:49.714Z,99.90
2019-03-28T00:35:19.290Z,99.90
2019-03-28T00:37:48.827Z,99.90
2019-03-28T00:40:18.356Z,99.90
2019-03-28T00:42:47.829Z,99.90
2019-03-28T00:45:17.643Z,99.90
2019-03-28T00:47:47.029Z,99.90
2019-03-28T00:50:16.670Z,99.90
2019-03-28T00:52:46.209Z,99.90
2019-03-28T00:55:15.664Z,99.90
2019-03-28T00:57:45.776Z,99.90
2019-03-28T01:00:15.761Z,99.90
2019-03-28T01:02:46.056Z,99.90
2019-03-28T01:05:15.938Z,99.90
2019-03-28T01:07:45.513Z,99.90
2019-03-28T01:10:15.245Z,99.90
2019-03-28T01:12:44.705Z,99.90
2019-03-28T01:15:14.342Z,99.90
2019-03-28T01:17:43.953Z,99.90
2019-03-28T01:20:13.872Z,99.90
2019-03-28T01:22:43.258Z,99.90
2019-03-28T01:25:12.790Z,99.90
2019-03-28T01:27:42.520Z,99.90
2019-03-28T01:30:12.250Z,99.90
2019-03-28T01:32:41.634Z,99.90
2019-03-28T01:35:11.157Z,99.90
2019-03-28T01:37:41.243Z,99.90
2019-03-28T01:40:10.926Z,99.90
2019-03-28T01:42:40.486Z,99.90
2019-03-28T01:45:10.962Z,99.90
2019-03-28T01:47:40.497Z,99.90
2019-03-28T01:50:10.229Z,99.90
2019-03-28T01:52:39.699Z,99.90
2019-03-28T01:55:09.248Z,99.90
2019-03-28T01:57:39.421Z,99.90
2019-03-28T02:00:10.100Z,99.90
2019-03-28T02:02:39.554Z,99.90
2019-03-28T02:05:09.109Z,99.90
2019-03-28T02:07:39.072Z,99.90
2019-03-28T02:10:08.907Z,99.90
2019-03-28T02:12:38.466Z,99.90
2019-03-28T02:15:09.093Z,99.90
2019-03-28T02:17:38.945Z,99.90
2019-03-28T02:20:09.207Z,99.90
2019-03-28T02:22:38.825Z,99.90
2019-03-28T02:25:08.510Z,99.90
2019-03-28T02:27:38.049Z,99.90
2019-03-28T02:30:09.118Z,99.90
2019-03-28T02:32:38.575Z,99.90
2019-03-28T02:35:08.992Z,99.90
2019-03-28T02:37:38.739Z,99.90
2019-03-28T02:40:08.515Z,99.90
2019-03-28T02:42:38.078Z,99.90
2019-03-28T02:45:08.282Z,99.90
2019-03-28T02:47:38.525Z,99.90
2019-03-28T02:50:08.808Z,99.90
2019-03-28T02:52:38.269Z,99.90
2019-03-28T02:55:08.302Z,99.90
2019-03-28T02:57:41.499Z,99.90
2019-03-28T03:00:09.686Z,99.90
2019-03-28T03:02:39.227Z,99.90
2019-03-28T03:05:08.823Z,99.90
2019-03-28T03:07:38.277Z,99.90
2019-03-28T03:10:08.168Z,99.90
2019-03-28T03:12:37.746Z,99.90
2019-03-28T03:15:08.057Z,99.90
2019-03-28T03:17:37.680Z,99.90
2019-03-28T03:20:07.910Z,99.90
2019-03-28T03:22:37.730Z,99.90
2019-03-28T03:25:07.534Z,99.90
2019-03-28T03:27:37.445Z,99.90
2019-03-28T03:30:08.756Z,99.90
2019-03-28T03:32:38.321Z,99.90
2019-03-28T03:35:08.732Z,99.90
2019-03-28T03:37:38.525Z,99.90
2019-03-28T03:40:09.674Z,99.90
2019-03-28T03:42:39.268Z,99.90
2019-03-28T03:45:09.595Z,99.90
2019-03-28T03:47:39.462Z,99.90
2019-03-28T03:50:09.704Z,99.90
2019-03-28T03:52:39.442Z,99.90
2019-03-28T03:55:09.363Z,99.90
2019-03-28T03:57:38.906Z,99.90
2019-03-28T04:00:08.748Z,99.90
2019-03-28T04:02:38.295Z,99.90
2019-03-28T04:05:08.050Z,99.90
2019-03-28T04:07:37.978Z,99.90
2019-03-28T04:10:08.094Z,99.90
2019-03-28T04:12:37.498Z,99.90
2019-03-28T04:15:07.300Z,99.90
2019-03-28T04:17:36.773Z,99.90
2019-03-28T04:20:06.949Z,99.90
2019-03-28T04:22:37.161Z,99.90
2019-03-28T04:25:07.102Z,99.90
2019-03-28T04:27:37.003Z,99.90
2019-03-28T04:30:07.075Z,99.90
2019-03-28T04:32:36.628Z,99.90
2019-03-28T04:35:06.185Z,99.90
2019-03-28T04:37:36.009Z,99.90
2019-03-28T04:40:06.521Z,99.90
2019-03-28T04:42:35.994Z,99.90
2019-03-28T04:45:05.738Z,99.90
2019-03-28T04:47:35.132Z,99.90
2019-03-28T04:50:04.990Z,99.90
2019-03-28T04:52:34.475Z,99.90
2019-03-28T04:55:04.294Z,99.90
2019-03-28T04:57:34.013Z,99.90
2019-03-28T05:00:04.513Z,99.90
2019-03-28T05:02:33.975Z,99.90
2019-03-28T05:05:03.434Z,99.90
2019-03-28T05:07:32.889Z,99.90
2019-03-28T05:10:02.965Z,99.90
2019-03-28T05:12:32.341Z,99.90
2019-03-28T05:15:02.125Z,99.90
2019-03-28T05:17:32.394Z,99.90
2019-03-28T05:20:01.970Z,99.90
2019-03-28T05:22:31.426Z,99.90
2019-03-28T05:25:00.933Z,99.90
2019-03-28T05:27:30.420Z,99.90
2019-03-28T05:29:59.802Z,99.90
2019-03-28T05:32:29.737Z,99.90
2019-03-28T05:34:59.193Z,99.90
2019-03-28T05:37:28.646Z,99.90
2019-03-28T05:39:58.438Z,99.90
2019-03-28T05:42:27.813Z,99.90
2019-03-28T05:44:57.273Z,99.90
2019-03-28T05:47:26.729Z,99.90
2019-03-28T05:49:56.109Z,99.90
2019-03-28T05:52:25.560Z,99.90
2019-03-28T05:54:54.962Z,99.90
2019-03-28T05:57:24.786Z,99.90
2019-03-28T05:59:54.329Z,99.90
2019-03-28T06:02:24.376Z,99.90
2019-03-28T06:04:54.001Z,99.90
2019-03-28T06:07:23.548Z,99.90
2019-03-28T06:09:53.721Z,99.90
2019-03-28T06:12:23.185Z,99.90
2019-03-28T06:14:53.643Z,99.90
2019-03-28T06:17:23.408Z,99.90
2019-03-28T06:19:52.955Z,99.90
2019-03-28T06:22:22.505Z,99.90
2019-03-28T06:24:51.877Z,99.90
2019-03-28T06:27:21.338Z,99.90
2019-03-28T06:29:50.773Z,99.90
2019-03-28T06:32:20.154Z,99.90
2019-03-28T06:34:49.638Z,99.90
2019-03-28T06:37:19.216Z,99.90
2019-03-28T06:39:48.772Z,99.90
2019-03-28T06:42:18.353Z,99.90
2019-03-28T06:44:48.298Z,99.90
2019-03-28T06:47:20.817Z,99.90
2019-03-28T06:49:49.374Z,99.90
2019-03-28T06:52:19.609Z,99.90
2019-03-28T06:54:50.328Z,99.90
2019-03-28T06:57:20.151Z,99.90
2019-03-28T06:59:50.001Z,99.90
2019-03-28T07:02:21.804Z,99.90
2019-03-28T07:04:51.262Z,99.90
2019-03-28T07:07:21.350Z,99.90
2019-03-28T07:09:51.341Z,99.90
2019-03-28T07:12:20.893Z,99.90
2019-03-28T07:14:50.502Z,99.80
2019-03-28T07:17:20.120Z,99.20
2019-03-28T07:19:49.994Z,99.80
2019-03-28T07:22:19.508Z,99.40
2019-03-28T07:24:48.968Z,99.00
2019-03-28T07:27:18.643Z,97.80
2019-03-28T07:29:51.029Z,96.70
2019-03-28T07:32:19.305Z,97.30
2019-03-28T07:34:49.053Z,95.90
2019-03-28T07:37:19.011Z,95.40
2019-03-28T07:39:48.787Z,95.70
2019-03-28T07:42:18.250Z,96.00
2019-03-28T07:44:47.785Z,95.70
2019-03-28T07:47:17.511Z,95.40
2019-03-28T07:49:46.899Z,95.00
2019-03-28T07:52:19.759Z,95.00
2019-03-28T07:54:49.153Z,94.20
2019-03-28T07:57:18.645Z,94.00
2019-03-28T07:59:48.136Z,94.00
2019-03-28T08:02:17.602Z,94.10
2019-03-28T08:04:47.070Z,92.80
2019-03-28T08:07:16.635Z,93.90
2019-03-28T08:09:46.096Z,93.10
2019-03-28T08:12:22.586Z,93.60
2019-03-28T08:14:47.714Z,93.00
2019-03-28T08:17:17.174Z,93.30
2019-03-28T08:19:46.808Z,93.20
2019-03-28T08:22:16.261Z,92.70
2019-03-28T08:24:46.353Z,92.30
2019-03-28T08:27:16.276Z,93.00
2019-03-28T08:29:45.754Z,92.70
2019-03-28T08:32:18.438Z,91.80
2019-03-28T08:34:47.840Z,92.10
2019-03-28T08:37:17.715Z,91.60
2019-03-28T08:39:47.189Z,90.70
2019-03-28T08:42:17.385Z,91.40
2019-03-28T08:44:46.937Z,91.80
2019-03-28T08:47:16.473Z,90.60
2019-03-28T08:49:46.238Z,90.60
2019-03-28T08:52:15.794Z,90.40
2019-03-28T08:54:45.261Z,90.50
2019-03-28T08:57:15.373Z,90.00
2019-03-28T08:59:50.633Z,88.80
2019-03-28T09:02:20.478Z,87.90
2019-03-28T09:04:50.225Z,87.50
2019-03-28T09:07:19.621Z,86.60
2019-03-28T09:09:49.089Z,85.90
2019-03-28T09:12:18.497Z,86.30
2019-03-28T09:17:35.437Z,87.00
2019-03-28T09:20:06.024Z,85.80
2019-03-28T09:22:38.707Z,84.90
2019-03-28T09:25:07.526Z,83.00
2019-03-28T09:27:37.166Z,83.90
2019-03-28T09:30:08.319Z,82.80
2019-03-28T09:32:38.097Z,82.40
2019-03-28T09:35:08.274Z,84.30
2019-03-28T09:37:37.736Z,80.10
2019-03-28T09:40:07.310Z,83.70
2019-03-28T09:42:38.570Z,80.00
2019-03-28T09:45:08.865Z,78.90
2019-03-28T09:47:38.471Z,79.30
2019-03-28T09:50:08.263Z,79.00
2019-03-28T09:52:37.718Z,78.60
2019-03-28T09:55:08.153Z,76.60
2019-03-28T09:57:38.058Z,75.50
2019-03-28T10:00:09.020Z,74.60
2019-03-28T10:02:38.629Z,76.50
2019-03-28T10:05:09.406Z,75.60
2019-03-28T10:07:39.341Z,74.00
2019-03-28T10:10:09.997Z,73.50
2019-03-28T10:12:39.834Z,73.30
2019-03-28T10:15:09.523Z,73.50
2019-03-28T10:17:42.284Z,71.50
2019-03-28T10:20:10.596Z,72.40
2019-03-28T10:22:40.165Z,72.30
2019-03-28T10:25:12.598Z,70.00
2019-03-28T10:27:41.331Z,68.00
2019-03-28T10:30:11.923Z,68.30
2019-03-28T10:32:41.497Z,69.10
2019-03-28T10:35:14.749Z,70.60
2019-03-28T10:37:44.414Z,70.20
2019-03-28T10:40:14.033Z,68.70
2019-03-28T10:42:43.602Z,70.50
2019-03-28T10:45:14.116Z,68.30
2019-03-28T10:47:43.748Z,68.50
2019-03-28T10:50:13.326Z,69.30
2019-03-28T10:52:42.977Z,70.10
2019-03-28T10:55:12.664Z,69.60
2019-03-28T10:57:42.209Z,68.70
2019-03-28T11:00:24.055Z,69.70
2019-03-28T11:02:45.946Z,68.80
2019-03-28T11:05:16.009Z,68.40
2019-03-28T11:07:45.505Z,69.20
2019-03-28T11:10:15.094Z,69.20
2019-03-28T11:12:44.709Z,69.30
2019-03-28T11:15:14.639Z,65.90
2019-03-28T11:17:44.061Z,68.50
2019-03-28T11:20:13.639Z,68.40
2019-03-28T11:22:43.409Z,67.70
2019-03-28T11:25:13.384Z,66.20
2019-03-28T11:27:42.810Z,67.30
2019-03-28T11:30:12.708Z,67.00
2019-03-28T11:32:42.217Z,66.10
2019-03-28T11:35:12.190Z,65.90
2019-03-28T11:37:41.722Z,66.20
2019-03-28T11:40:12.190Z,66.30
2019-03-28T11:42:42.523Z,67.10
2019-03-28T11:45:12.713Z,66.10
2019-03-28T11:47:42.218Z,65.70
2019-03-28T11:50:13.337Z,64.00
2019-03-28T11:52:43.059Z,65.90
2019-03-28T11:55:13.348Z,66.00
2019-03-28T11:57:43.120Z,64.50
2019-03-28T12:00:13.930Z,66.10
2019-03-28T12:02:43.953Z,66.30
2019-03-28T12:05:13.747Z,66.10
2019-03-28T12:07:43.321Z,65.80
2019-03-28T12:10:13.506Z,65.70
2019-03-28T12:12:43.119Z,66.10
2019-03-28T12:15:13.601Z,65.20
2019-03-28T12:17:43.185Z,63.10
2019-03-28T12:20:13.362Z,62.50
2019-03-28T12:22:43.018Z,63.40
2019-03-28T12:25:12.758Z,63.90
2019-03-28T12:27:42.268Z,64.20
2019-03-28T12:30:15.754Z,62.50
2019-03-28T12:32:44.157Z,62.60
2019-03-28T12:35:14.074Z,60.90
2019-03-28T12:37:43.570Z,60.90
2019-03-28T12:40:13.461Z,63.10
2019-03-28T12:42:43.136Z,61.00
2019-03-28T12:45:13.424Z,62.20
2019-03-28T12:47:43.402Z,61.40
2019-03-28T12:50:14.175Z,60.80
2019-03-28T12:52:44.910Z,62.60
2019-03-28T12:55:15.041Z,63.40
2019-03-28T12:57:48.104Z,62.10
2019-03-28T13:00:16.788Z,61.00
2019-03-28T13:02:46.374Z,60.70
2019-03-28T13:05:16.045Z,59.30
2019-03-28T13:07:45.588Z,57.80
2019-03-28T13:10:15.313Z,58.10
2019-03-28T13:12:44.730Z,59.20
2019-03-28T13:15:14.409Z,56.00
2019-03-28T13:17:44.151Z,57.90
2019-03-28T13:20:14.257Z,54.40
2019-03-28T13:22:43.761Z,56.40
2019-03-28T13:25:13.333Z,55.80
2019-03-28T13:27:42.951Z,54.70
2019-03-28T13:30:13.579Z,55.20
2019-03-28T13:32:43.175Z,55.70
2019-03-28T13:35:13.442Z,56.90
2019-03-28T13:37:43.599Z,55.60
2019-03-28T13:40:14.350Z,56.80
2019-03-28T13:42:44.313Z,57.30
2019-03-28T13:45:14.662Z,58.20
2019-03-28T13:47:44.285Z,58.10
2019-03-28T13:50:14.669Z,58.30
2019-03-28T13:52:44.253Z,58.10
2019-03-28T13:55:13.812Z,58.30
2019-03-28T13:57:43.712Z,57.90
2019-03-28T14:00:13.769Z,58.40
2019-03-28T14:02:55.570Z,58.90
2019-03-28T14:05:14.612Z,58.80
2019-03-28T14:07:44.100Z,59.10
2019-03-28T14:10:13.804Z,59.60
2019-03-28T14:12:43.765Z,60.00
2019-03-28T14:15:13.379Z,60.10
2019-03-28T14:17:42.882Z,60.00
2019-03-28T14:20:13.016Z,59.10
2019-03-28T14:22:42.574Z,59.30
2019-03-28T14:25:12.144Z,58.60
2019-03-28T14:27:42.254Z,59.40
2019-03-28T14:30:12.322Z,60.40
2019-03-28T14:32:52.444Z,60.00
2019-03-28T14:35:13.205Z,59.00
2019-03-28T14:37:42.777Z,59.90
2019-03-28T14:40:12.751Z,60.50
2019-03-28T14:42:42.297Z,58.70
2019-03-28T14:45:12.199Z,61.10
2019-03-28T14:47:41.763Z,59.20
2019-03-28T14:50:12.120Z,59.40
2019-03-28T14:52:41.813Z,59.10
2019-03-28T14:55:11.797Z,58.70
2019-03-28T14:57:43.037Z,59.50
2019-03-28T15:00:24.792Z,59.40
2019-03-28T15:02:54.484Z,58.90
2019-03-28T15:05:24.440Z,59.20
2019-03-28T15:07:54.259Z,59.70
2019-03-28T15:10:23.985Z,59.30
2019-03-28T15:12:53.836Z,60.00
2019-03-28T15:15:23.646Z,59.50
2019-03-28T15:17:54.398Z,58.90
2019-03-28T15:20:27.321Z,59.60
2019-03-28T15:22:56.056Z,60.50
2019-03-28T15:25:25.925Z,60.70
2019-03-28T15:27:55.655Z,61.40
2019-03-28T15:30:25.500Z,61.60
2019-03-28T15:32:55.170Z,61.80
2019-03-28T15:35:25.105Z,61.40
2019-03-28T15:37:54.593Z,61.70
2019-03-28T15:40:24.270Z,61.60
2019-03-28T15:42:53.769Z,61.30
2019-03-28T15:45:23.349Z,60.70
2019-03-28T15:47:52.984Z,61.20
2019-03-28T15:50:22.662Z,61.30
2019-03-28T15:52:52.166Z,60.90
2019-03-28T15:55:21.756Z,62.50
2019-03-28T15:57:51.205Z,61.80
2019-03-28T16:00:20.780Z,62.00
2019-03-28T16:02:50.636Z,61.70
2019-03-28T16:05:20.213Z,61.40
2019-03-28T16:07:50.022Z,61.90
2019-03-28T16:10:20.042Z,62.90
2019-03-28T16:12:49.589Z,63.40
2019-03-28T16:15:19.013Z,62.70
2019-03-28T16:17:48.647Z,63.50
2019-03-28T16:20:19.789Z,63.30
2019-03-28T16:22:49.397Z,62.40
2019-03-28T16:25:19.098Z,62.30
2019-03-28T16:27:48.655Z,63.00
2019-03-28T16:30:22.993Z,62.80
2019-03-28T16:32:52.575Z,63.60
2019-03-28T16:35:22.413Z,64.40
2019-03-28T16:37:52.169Z,62.80
2019-03-28T16:40:22.152Z,63.80
2019-03-28T16:42:51.849Z,63.80
2019-03-28T16:45:21.853Z,64.40
2019-03-28T16:47:51.440Z,64.90
2019-03-28T16:50:21.018Z,65.40
2019-03-28T16:52:50.605Z,65.30
2019-03-28T16:55:26.159Z,66.40
2019-03-28T16:57:51.464Z,65.90
2019-03-28T17:00:22.834Z,66.50
2019-03-28T17:02:52.349Z,66.30
2019-03-28T17:05:22.033Z,66.80
2019-03-28T17:07:51.876Z,68.40
2019-03-28T17:10:43.545Z,67.40
2019-03-28T17:13:14.209Z,67.70
2019-03-28T17:15:43.820Z,68.10
2019-03-28T17:18:13.520Z,67.80
2019-03-28T17:20:44.540Z,68.30
2019-03-28T17:23:14.257Z,68.50
2019-03-28T17:25:44.034Z,69.30
2019-03-28T17:28:13.662Z,69.70
2019-03-28T17:30:43.529Z,69.30
2019-03-28T17:33:13.117Z,69.40
2019-03-28T17:35:42.767Z,70.50
2019-03-28T17:38:12.374Z,70.70
2019-03-28T17:40:42.358Z,70.50
2019-03-28T17:43:12.029Z,70.30
2019-03-28T17:45:41.870Z,71.40
2019-03-28T17:48:11.621Z,71.50
2019-03-28T17:50:41.181Z,71.30
2019-03-28T17:53:11.054Z,71.80
2019-03-28T17:55:41.082Z,72.70
2019-03-28T17:58:10.848Z,72.40
2019-03-28T18:00:41.800Z,73.50
2019-03-28T18:03:11.592Z,73.10
2019-03-28T18:05:42.508Z,73.40
2019-03-28T18:08:12.501Z,74.10
2019-03-28T18:10:42.475Z,74.00
2019-03-28T18:13:13.249Z,74.00
2019-03-28T18:15:43.349Z,74.50
2019-03-28T18:18:13.001Z,75.20
2019-03-28T18:20:43.917Z,75.30
2019-03-28T18:23:13.508Z,76.10
2019-03-28T18:25:43.261Z,76.10
2019-03-28T18:28:12.833Z,76.30
2019-03-28T18:30:42.411Z,76.90
2019-03-28T18:33:12.401Z,79.90
2019-03-28T18:35:41.849Z,80.60
2019-03-28T18:38:11.569Z,78.90
2019-03-28T18:40:41.348Z,79.40
2019-03-28T18:43:11.531Z,80.00
2019-03-28T18:45:41.229Z,80.40
2019-03-28T18:48:11.586Z,81.00
2019-03-28T18:50:41.631Z,81.30
2019-03-28T18:53:11.168Z,81.90
2019-03-28T18:55:40.821Z,82.90
2019-03-28T18:58:10.674Z,82.90
2019-03-28T19:00:40.669Z,83.40
2019-03-28T19:03:10.396Z,83.10
2019-03-28T19:05:39.989Z,83.70
2019-03-28T19:08:09.593Z,84.10
2019-03-28T19:10:39.228Z,84.10
2019-03-28T19:13:08.830Z,84.50
2019-03-28T19:15:38.688Z,84.50
2019-03-28T19:18:08.321Z,84.80
2019-03-28T19:20:38.056Z,85.00
2019-03-28T19:23:07.730Z,85.20
2019-03-28T19:25:37.566Z,85.60
2019-03-28T19:28:07.783Z,86.00
2019-03-28T19:30:38.947Z,86.60
2019-03-28T19:33:08.886Z,87.10
2019-03-28T19:35:40.628Z,87.00
2019-03-28T19:38:10.766Z,87.80
2019-03-28T19:40:40.562Z,88.10
2019-03-28T19:43:20.608Z,88.50
2019-03-28T19:45:41.601Z,88.50
2019-03-28T19:48:11.296Z,88.50
2019-03-28T19:50:41.826Z,88.80
2019-03-28T19:53:12.185Z,89.40
2019-03-28T19:55:42.147Z,89.60
2019-03-28T19:58:13.512Z,89.60
2019-03-28T20:00:44.008Z,90.00
2019-03-28T20:03:14.091Z,90.20
2019-03-28T20:05:47.774Z,90.20
2019-03-28T20:08:18.003Z,90.30
2019-03-28T20:10:47.011Z,90.30
2019-03-28T20:13:16.841Z,90.40
2019-03-28T20:15:46.608Z,90.80
2019-03-28T20:18:16.616Z,90.80
2019-03-28T20:20:46.953Z,90.90
2019-03-28T20:23:16.833Z,91.00
2019-03-28T20:25:46.740Z,91.00
2019-03-28T20:28:16.601Z,91.10
2019-03-28T20:30:46.364Z,91.30
2019-03-28T20:33:15.928Z,91.20
2019-03-28T20:35:45.791Z,91.80
2019-03-28T20:38:15.428Z,91.70
2019-03-28T20:40:45.259Z,91.80
2019-03-28T20:43:14.967Z,91.90
2019-03-28T20:45:44.630Z,92.20
2019-03-28T20:48:14.634Z,92.50
2019-03-28T20:50:44.131Z,92.20
2019-03-28T20:53:13.665Z,92.50
2019-03-28T20:55:43.173Z,92.40
2019-03-28T20:58:13.793Z,92.60
2019-03-28T21:00:45.668Z,92.70
2019-03-28T21:03:15.955Z,93.00
2019-03-28T21:05:46.285Z,93.10
2019-03-28T21:08:15.929Z,93.10
2019-03-28T21:10:45.769Z,93.40
2019-03-28T21:13:15.631Z,93.30
2019-03-28T21:15:45.990Z,93.60
2019-03-28T21:18:15.663Z,94.00
2019-03-28T21:20:45.315Z,94.00
2019-03-28T21:23:15.000Z,94.20
2019-03-28T21:25:44.830Z,94.20
2019-03-28T21:28:14.377Z,94.30
2019-03-28T21:30:47.438Z,94.40
2019-03-28T21:33:15.477Z,94.50
2019-03-28T21:35:45.138Z,94.90
2019-03-28T21:38:14.660Z,94.50
2019-03-28T21:40:44.237Z,94.60
2019-03-28T21:43:14.485Z,94.70
2019-03-28T21:45:44.033Z,95.00
2019-03-28T21:48:13.530Z,94.90
2019-03-28T21:50:43.045Z,95.20
2019-03-28T21:53:12.889Z,94.90
2019-03-28T21:55:54.510Z,95.00
2019-03-28T21:58:14.021Z,95.40
2019-03-28T22:00:43.516Z,95.60
2019-03-28T22:03:13.106Z,95.50
2019-03-28T22:05:42.819Z,95.20
2019-03-28T22:08:12.501Z,95.20
2019-03-28T22:10:42.432Z,95.20
2019-03-28T22:13:12.778Z,95.40
2019-03-28T22:15:42.311Z,95.40
2019-03-28T22:18:11.877Z,95.60
2019-03-28T22:20:41.372Z,95.60
2019-03-28T22:23:13.572Z,95.90
2019-03-28T22:25:42.694Z,96.00
2019-03-28T22:28:12.364Z,96.00
2019-03-28T22:30:42.065Z,95.90
2019-03-28T22:33:11.610Z,96.10
2019-03-28T22:35:41.137Z,96.20
2019-03-28T22:38:10.602Z,96.10
2019-03-28T22:40:40.086Z,96.30
2019-03-28T22:43:09.662Z,96.30
2019-03-28T22:45:39.234Z,96.20
2019-03-28T22:48:11.107Z,96.40
2019-03-28T22:50:40.202Z,96.80
2019-03-28T22:53:09.689Z,96.70
2019-03-28T22:55:39.670Z,96.90
2019-03-28T22:58:09.682Z,97.00
2019-03-28T23:00:47.146Z,96.90
2019-03-28T23:03:17.818Z,97.00
2019-03-28T23:05:47.377Z,97.00
2019-03-28T23:08:16.884Z,97.00
2019-03-28T23:10:47.930Z,97.30
2019-03-28T23:13:17.593Z,97.30
2019-03-28T23:15:47.091Z,97.30
2019-03-28T23:18:16.670Z,97.20
2019-03-28T23:20:46.280Z,97.40
2019-03-28T23:23:15.819Z,97.30
2019-03-28T23:25:45.296Z,97.40
2019-03-28T23:28:14.748Z,97.30
2019-03-28T23:30:44.211Z,97.10
2019-03-28T23:33:14.224Z,97.20
2019-03-28T23:35:44.172Z,97.50
2019-03-28T23:38:13.726Z,97.40
2019-03-28T23:40:43.313Z,97.30
2019-03-28T23:43:12.842Z,97.20
2019-03-28T23:45:42.298Z,97.10
2019-03-28T23:48:12.005Z,97.80
2019-03-28T23:50:42.793Z,97.60
2019-03-28T23:53:12.385Z,97.90
2019-03-28T23:55:41.919Z,97.90
2019-03-28T23:58:11.361Z,97.90
